Fiddletown, California
Current Conditions -  °F | °C
As of 6:35 PM on Friday 24 Oct 2014 (Local Time) from KPVF Reporting Station
Clear Clear  
Wind Chill: 64°   Ceiling: Unl
Heat Index: 64°   Visibility: 10mi
Dew Point: 45°   Wind: 0mph
Humidity: 49%   Direction: NA
Pressure: 29.95"   Gusts: NA
Location:  38.5°N, 120.75°W
Report Text: KPVF 250135Z AUTO 00000KT 10SM CLR 18/07 A2995 RMK AO1
Loading
Personal Weather Stations






























Interactive Weather Map
Tropical Storm Tracking
New forecast layout! Learn more

10-Day Weather Forecast

Advertisements
Track Severe Weather on mobile